| time (UTC) | temp F | wind direction | speed MPH | gust MPH | rain 1hr in | rain 24hr in | rain mn in | humidity % | barometer mb |
| 20260502213514 | 66 | 266 | 4.0 | 10.0 | 0.00 | 0.02 | 0.02 | 33 | 1009.6 |
| 20260502213509 | 66 | 246 | 3.0 | 9.0 | 0.00 | 0.02 | 0.02 | 34 | 1009.6 |
| 20260502212510 | 67 | 230 | 4.0 | 10.0 | 0.00 | 0.02 | 0.02 | 33 | 1009.7 |
| 20260502212011 | 67 | 252 | 4.0 | 9.0 | 0.00 | 0.02 | 0.02 | 34 | 1009.8 |
| 20260502211510 | 67 | 314 | 3.0 | 9.0 | 0.00 | 0.02 | 0.02 | 34 | 1009.8 |
| 20260502211010 | 66 | 266 | 3.0 | 9.0 | 0.00 | 0.02 | 0.02 | 35 | 1009.9 |
| 20260502210511 | 66 | 262 | 3.0 | 9.0 | 0.00 | 0.02 | 0.02 | 35 | 1010.0 |
| 20260502210011 | 66 | 261 | 3.0 | 9.0 | 0.00 | 0.02 | 0.02 | 33 | 1010.0 |
| 20260502205512 | 65 | 246 | 2.0 | 7.0 | 0.00 | 0.02 | 0.02 | 34 | 1010.2 |
| 20260502205011 | 65 | 236 | 3.0 | 10.0 | 0.00 | 0.02 | 0.02 | 34 | 1010.4 |
| 20260502204510 | 65 | 250 | 3.0 | 10.0 | 0.00 | 0.02 | 0.02 | 34 | 1010.4 |
| 20260502204014 | 65 | 219 | 3.0 | 9.0 | 0.00 | 0.02 | 0.02 | 33 | 1010.6 |
| 20260502204010 | 65 | 271 | 2.0 | 6.0 | 0.00 | 0.02 | 0.02 | 35 | 1010.5 |
| 20260502203008 | 65 | 253 | 4.0 | 13.0 | 0.00 | 0.02 | 0.02 | 34 | 1010.8 |
| 20260502202513 | 65 | 257 | 3.0 | 9.0 | 0.00 | 0.02 | 0.02 | 34 | 1010.9 |
| 20260502202509 | 65 | 279 | 4.0 | 13.0 | 0.00 | 0.02 | 0.02 | 34 | 1010.9 |
| 20260502201512 | 65 | 244 | 2.0 | 6.0 | 0.00 | 0.02 | 0.02 | 35 | 1011.3 |
| 20260502201508 | 65 | 207 | 2.0 | 8.0 | 0.00 | 0.02 | 0.02 | 35 | 1011.1 |
| 20260502200506 | 64 | 226 | 3.0 | 8.0 | 0.00 | 0.02 | 0.02 | 35 | 1011.4 |
| 20260502200004 | 64 | 264 | 3.0 | 9.0 | 0.00 | 0.02 | 0.02 | 35 | 1011.4 |
| 20260502195509 | 63 | 243 | 4.0 | 9.0 | 0.00 | 0.02 | 0.02 | 34 | 1011.6 |
| 20260502195504 | 64 | 236 | 3.0 | 9.0 | 0.00 | 0.02 | 0.02 | 36 | 1011.5 |
| 20260502194507 | 63 | 273 | 2.0 | 7.0 | 0.00 | 0.02 | 0.02 | 35 | 1011.8 |
| 20260502194502 | 63 | 261 | 3.0 | 9.0 | 0.00 | 0.02 | 0.02 | 36 | 1011.7 |
| 20260502193502 | 63 | 205 | 2.0 | 7.0 | 0.00 | 0.02 | 0.02 | 36 | 1011.9 |
| 20260502193002 | 62 | 251 | 2.0 | 10.0 | 0.00 | 0.02 | 0.02 | 36 | 1012.1 |
| 20260502192503 | 62 | 270 | 3.0 | 10.0 | 0.00 | 0.02 | 0.02 | 36 | 1012.1 |
| 20260502192003 | 62 | 305 | 3.0 | 9.0 | 0.00 | 0.02 | 0.02 | 35 | 1012.2 |
| 20260502191502 | 62 | 198 | 2.0 | 8.0 | 0.00 | 0.02 | 0.02 | 35 | 1012.3 |
| 20260502191000 | 62 | 253 | 1.0 | 8.0 | 0.00 | 0.02 | 0.02 | 35 | 1012.4 |
| 20260502190500 | 61 | 218 | 1.0 | 4.0 | 0.00 | 0.02 | 0.02 | 35 | 1012.4 |
| 20260502190000 | 61 | 212 | 2.0 | 5.0 | 0.00 | 0.02 | 0.02 | 37 | 1012.5 |
| 20260502185500 | 61 | 271 | 2.0 | 6.0 | 0.02 | 0.02 | 0.02 | 35 | 1012.6 |
| 20260502185000 | 61 | 258 | 3.0 | 9.0 | 0.02 | 0.02 | 0.02 | 35 | 1012.8 |
| 20260502184501 | 61 | 264 | 3.0 | 9.0 | 0.02 | 0.02 | 0.02 | 35 | 1012.8 |
| 20260502184000 | 61 | 231 | 2.0 | 6.0 | 0.02 | 0.02 | 0.02 | 37 | 1013.0 |
| 20260502183504 | 60 | 246 | 3.0 | 7.0 | 0.02 | 0.02 | 0.02 | 36 | 1013.2 |
| 20260502183500 | 60 | 288 | 2.0 | 7.0 | 0.02 | 0.02 | 0.02 | 37 | 1013.1 |
| 20260502182504 | 60 | 263 | 2.0 | 6.0 | 0.02 | 0.02 | 0.02 | 37 | 1013.3 |
| 20260502182500 | 60 | 218 | 2.0 | 6.0 | 0.02 | 0.02 | 0.02 | 36 | 1013.3 |
| 20260502181458 | 60 | 266 | 2.0 | 9.0 | 0.02 | 0.02 | 0.02 | 37 | 1013.4 |
| 20260502180958 | 59 | 226 | 2.0 | 9.0 | 0.02 | 0.02 | 0.02 | 38 | 1013.5 |
| 20260502180458 | 59 | 253 | 2.0 | 10.0 | 0.02 | 0.02 | 0.02 | 38 | 1013.6 |
| 20260502170456 | 57 | 228 | 2.0 | 7.0 | 0.00 | 0.01 | 0.00 | 37 | 1014.7 |
| 20260502163954 | 56 | 259 | 3.0 | 8.0 | 0.00 | 0.01 | 0.00 | 39 | 1015.0 |
| 20260502163453 | 56 | 245 | 2.0 | 8.0 | 0.00 | 0.01 | 0.00 | 39 | 1015.1 |
| 20260502162954 | 56 | 230 | 2.0 | 6.0 | 0.00 | 0.01 | 0.00 | 39 | 1015.2 |
| 20260502162454 | 56 | 268 | 2.0 | 6.0 | 0.00 | 0.01 | 0.00 | 40 | 1015.2 |
| 20260502161954 | 56 | 193 | 2.0 | 6.0 | 0.00 | 0.01 | 0.00 | 39 | 1015.3 |
| 20260502161454 | 56 | 244 | 2.0 | 8.0 | 0.00 | 0.01 | 0.00 | 40 | 1015.3 |
| 20260502160954 | 55 | 261 | 2.0 | 8.0 | 0.00 | 0.01 | 0.00 | 43 | 1015.3 |
| 20260502160454 | 55 | 269 | 3.0 | 11.0 | 0.00 | 0.01 | 0.00 | 42 | 1015.4 |
| 20260502151452 | 54 | 261 | 3.0 | 8.0 | 0.00 | 0.01 | 0.00 | 43 | 1015.9 |
| 20260502150956 | 54 | 265 | 2.0 | 7.0 | 0.00 | 0.01 | 0.00 | 45 | 1015.9 |
| 20260502150952 | 54 | 260 | 2.0 | 8.0 | 0.00 | 0.01 | 0.00 | 43 | 1015.9 |
| 20260502150557 | 53 | 269 | 2.0 | 5.0 | 0.00 | 0.01 | 0.00 | 46 | 1015.9 |
| 20260502130443 | 43 | 264 | 1.0 | 3.0 | 0.00 | 0.01 | 0.00 | 69 | 1016.5 |
| 20260502122937 | 40 | 264 | 0.0 | 0.0 | 0.00 | 0.01 | 0.00 | 71 | 1016.4 |
| 20260502122438 | 40 | 265 | 0.0 | 1.0 | 0.00 | 0.01 | 0.00 | 72 | 1016.3 |
| 20260502121938 | 40 | 264 | 0.0 | 1.0 | 0.00 | 0.01 | 0.00 | 72 | 1016.3 |
| 20260502121438 | 39 | 264 | 0.0 | 0.0 | 0.00 | 0.01 | 0.00 | 72 | 1016.4 |
| 20260502120939 | 39 | 264 | 0.0 | 0.0 | 0.00 | 0.01 | 0.00 | 72 | 1016.4 |
| 20260502120437 | 39 | 264 | 0.0 | 0.0 | 0.00 | 0.01 | 0.00 | 73 | 1016.3 |
| 20260502115436 | 38 | 264 | 0.0 | 0.0 | 0.00 | 0.01 | 0.00 | 73 | 1016.3 |
| 20260502114935 | 38 | 264 | 0.0 | 0.0 | 0.00 | 0.01 | 0.00 | 74 | 1016.2 |
| 20260502114435 | 37 | 264 | 0.0 | 0.0 | 0.00 | 0.01 | 0.00 | 74 | 1016.2 |
| 20260502113935 | 37 | 264 | 0.0 | 0.0 | 0.00 | 0.01 | 0.00 | 74 | 1016.3 |
| 20260502113440 | 37 | 264 | 0.0 | 0.0 | 0.00 | 0.01 | 0.00 | 74 | 1016.2 |
| 20260502113435 | 37 | 264 | 0.0 | 0.0 | 0.00 | 0.01 | 0.00 | 74 | 1016.2 |
| 20260502112435 | 37 | 265 | 0.0 | 0.0 | 0.00 | 0.01 | 0.00 | 74 | 1016.1 |
| 20260502111939 | 37 | 264 | 0.0 | 1.0 | 0.00 | 0.01 | 0.00 | 73 | 1016.1 |
| 20260502111935 | 37 | 265 | 0.0 | 1.0 | 0.00 | 0.01 | 0.00 | 74 | 1016.2 |
| 20260502111541 | 37 | 265 | 0.0 | 1.0 | 0.00 | 0.01 | 0.00 | 73 | 1016.1 |
| 20260502111040 | 37 | 264 | 0.0 | 1.0 | 0.00 | 0.01 | 0.00 | 73 | 1016.1 |
| 20260502105934 | 37 | 264 | 0.0 | 0.0 | 0.00 | 0.01 | 0.00 | 72 | 1016.0 |
| 20260502105435 | 37 | 264 | 0.0 | 0.0 | 0.00 | 0.01 | 0.00 | 72 | 1016.0 |
| 20260502104935 | 37 | 265 | 0.0 | 0.0 | 0.00 | 0.01 | 0.00 | 72 | 1016.1 |
| 20260502104435 | 38 | 265 | 0.0 | 0.0 | 0.00 | 0.01 | 0.00 | 72 | 1016.0 |
| 20260502103938 | 38 | 264 | 0.0 | 0.0 | 0.00 | 0.01 | 0.00 | 71 | 1016.1 |
| 20260502103934 | 38 | 264 | 0.0 | 0.0 | 0.00 | 0.01 | 0.00 | 71 | 1016.1 |
| 20260502102935 | 38 | 264 | 0.0 | 0.0 | 0.00 | 0.01 | 0.00 | 71 | 1016.1 |
| 20260502102435 | 38 | 265 | 0.0 | 0.0 | 0.00 | 0.01 | 0.00 | 70 | 1016.0 |
| 20260502101935 | 38 | 264 | 0.0 | 0.0 | 0.00 | 0.01 | 0.00 | 70 | 1016.1 |
| 20260502101435 | 38 | 265 | 0.0 | 0.0 | 0.00 | 0.01 | 0.00 | 70 | 1016.1 |
| 20260502100931 | 38 | 265 | 0.0 | 0.0 | 0.00 | 0.01 | 0.00 | 70 | 1016.0 |
| 20260502100432 | 38 | 264 | 0.0 | 1.0 | 0.00 | 0.01 | 0.00 | 69 | 1016.0 |
| 20260502090921 | 41 | 264 | 0.0 | 0.0 | 0.00 | 0.01 | 0.00 | 62 | 1015.9 |
| 20260502090421 | 41 | 264 | 0.0 | 0.0 | 0.00 | 0.01 | 0.00 | 61 | 1015.9 |
| 20260502071405 | 43 | 264 | 1.0 | 3.0 | 0.00 | 0.01 | 0.00 | 59 | 1016.2 |
| 20260502070905 | 43 | 265 | 1.0 | 3.0 | 0.00 | 0.01 | 0.00 | 59 | 1016.2 |
| 20260502070405 | 42 | 265 | 0.0 | 3.0 | 0.00 | 0.01 | 0.00 | 59 | 1016.3 |
| 20260502065906 | 42 | 264 | 0.0 | 2.0 | 0.00 | 0.01 | 0.00 | 60 | 1016.2 |
| 20260502065405 | 43 | 265 | 0.0 | 1.0 | 0.00 | 0.01 | 0.00 | 60 | 1016.3 |
| 20260502064905 | 43 | 264 | 0.0 | 1.0 | 0.00 | 0.01 | 0.00 | 60 | 1016.3 |
| 20260502064406 | 43 | 265 | 1.0 | 2.0 | 0.00 | 0.01 | 0.00 | 60 | 1016.3 |
| 20260502063905 | 43 | 265 | 1.0 | 6.0 | 0.00 | 0.01 | 0.00 | 59 | 1016.4 |
| 20260502063403 | 43 | 264 | 1.0 | 6.0 | 0.00 | 0.01 | 0.00 | 59 | 1016.4 |
| 20260502062907 | 42 | 264 | 0.0 | 1.0 | 0.00 | 0.01 | 0.00 | 61 | 1016.4 |
| 20260502062903 | 42 | 265 | 0.0 | 3.0 | 0.00 | 0.01 | 0.00 | 60 | 1016.4 |
| 20260502061908 | 42 | 264 | 0.0 | 1.0 | 0.00 | 0.01 | 0.00 | 61 | 1016.3 |
| 20260502061903 | 42 | 264 | 0.0 | 1.0 | 0.00 | 0.01 | 0.00 | 62 | 1016.3 |
| 20260502061510 | 43 | 264 | 0.0 | 0.0 | 0.00 | 0.01 | 0.00 | 61 | 1016.4 |
| 20260502060407 | 43 | 264 | 0.0 | 0.0 | 0.00 | 0.01 | 0.00 | 60 | 1016.4 |
| 20260502060403 | 43 | 264 | 0.0 | 0.0 | 0.00 | 0.01 | 0.00 | 61 | 1016.3 |
| 20260502055405 | 43 | 264 | 0.0 | 1.0 | 0.00 | 0.01 | 0.00 | 59 | 1016.4 |
| 20260502054904 | 43 | 264 | 0.0 | 1.0 | 0.00 | 0.01 | 0.00 | 58 | 1016.4 |
| 20260502054401 | 43 | 264 | 0.0 | 1.0 | 0.00 | 0.01 | 0.00 | 58 | 1016.4 |
| 20260502053901 | 43 | 265 | 0.0 | 1.0 | 0.00 | 0.01 | 0.00 | 58 | 1016.4 |
| 20260502053401 | 43 | 264 | 0.0 | 1.0 | 0.00 | 0.01 | 0.00 | 58 | 1016.5 |
| 20260502052906 | 44 | 264 | 0.0 | 1.0 | 0.00 | 0.01 | 0.00 | 57 | 1016.5 |
| 20260502052902 | 43 | 265 | 0.0 | 1.0 | 0.00 | 0.01 | 0.00 | 57 | 1016.4 |
| 20260502051901 | 44 | 264 | 0.0 | 1.0 | 0.00 | 0.01 | 0.00 | 56 | 1016.4 |
| 20260502051401 | 44 | 264 | 0.0 | 1.0 | 0.00 | 0.01 | 0.00 | 55 | 1016.4 |
| 20260502050901 | 44 | 264 | 0.0 | 0.0 | 0.00 | 0.01 | 0.00 | 54 | 1016.4 |
| 20260502050359 | 44 | 265 | 0.0 | 0.0 | 0.00 | 0.01 | 0.00 | 54 | 1016.3 |
| 20260502045858 | 44 | 265 | 0.0 | 0.0 | 0.00 | 0.01 | 0.01 | 54 | 1016.4 |
| 20260502045359 | 44 | 265 | 0.0 | 0.0 | 0.00 | 0.01 | 0.01 | 54 | 1016.3 |
| 20260502044859 | 44 | 265 | 0.0 | 0.0 | 0.00 | 0.01 | 0.01 | 53 | 1016.3 |
| 20260502044359 | 44 | 264 | 0.0 | 1.0 | 0.00 | 0.01 | 0.01 | 53 | 1016.3 |
| 20260502043906 | 45 | 265 | 0.0 | 1.0 | 0.00 | 0.01 | 0.01 | 52 | 1016.3 |
| 20260502043902 | 45 | 265 | 0.0 | 1.0 | 0.00 | 0.01 | 0.01 | 52 | 1016.3 |
| 20260502042856 | 45 | 264 | 0.0 | 1.0 | 0.00 | 0.01 | 0.01 | 52 | 1016.4 |
| 20260502042356 | 45 | 264 | 0.0 | 0.0 | 0.00 | 0.01 | 0.01 | 51 | 1016.4 |
| 20260502041856 | 45 | 264 | 0.0 | 0.0 | 0.00 | 0.01 | 0.01 | 51 | 1016.4 |
| 20260502041357 | 45 | 264 | 0.0 | 0.0 | 0.00 | 0.01 | 0.01 | 51 | 1016.3 |
| 20260502040858 | 45 | 265 | 0.0 | 0.0 | 0.00 | 0.01 | 0.01 | 50 | 1016.4 |
| 20260502040357 | 45 | 264 | 0.0 | 0.0 | 0.00 | 0.01 | 0.01 | 50 | 1016.3 |
| 20260502035857 | 46 | 265 | 0.0 | 0.0 | 0.00 | 0.01 | 0.01 | 50 | 1016.3 |
| 20260502035358 | 46 | 264 | 0.0 | 1.0 | 0.00 | 0.01 | 0.01 | 49 | 1016.4 |
| 20260502034855 | 46 | 265 | 0.0 | 1.0 | 0.00 | 0.01 | 0.01 | 49 | 1016.3 |
| 20260502034355 | 46 | 265 | 0.0 | 1.0 | 0.00 | 0.01 | 0.01 | 49 | 1016.4 |
| 20260502033854 | 46 | 265 | 0.0 | 1.0 | 0.00 | 0.01 | 0.01 | 49 | 1016.4 |
| 20260502033354 | 46 | 264 | 0.0 | 0.0 | 0.00 | 0.01 | 0.01 | 48 | 1016.4 |
| 20260502032855 | 46 | 264 | 0.0 | 0.0 | 0.00 | 0.01 | 0.01 | 48 | 1016.4 |
| 20260502032354 | 46 | 264 | 0.0 | 0.0 | 0.00 | 0.01 | 0.01 | 47 | 1016.4 |
| 20260502031855 | 47 | 264 | 0.0 | 0.0 | 0.00 | 0.01 | 0.01 | 47 | 1016.4 |
| 20260502031355 | 47 | 264 | 0.0 | 0.0 | 0.00 | 0.01 | 0.01 | 47 | 1016.4 |
| 20260502030855 | 47 | 264 | 0.0 | 1.0 | 0.00 | 0.01 | 0.01 | 46 | 1016.5 |
| 20260502030359 | 47 | 264 | 0.0 | 0.0 | 0.00 | 0.01 | 0.01 | 45 | 1016.4 |
| 20260502030354 | 47 | 265 | 0.0 | 1.0 | 0.00 | 0.01 | 0.01 | 46 | 1016.4 |
| 20260502025854 | 47 | 264 | 0.0 | 1.0 | 0.00 | 0.01 | 0.01 | 45 | 1016.4 |
| 20260502024859 | 48 | 264 | 0.0 | 1.0 | 0.00 | 0.01 | 0.01 | 44 | 1016.4 |
| 20260502024854 | 48 | 264 | 0.0 | 1.0 | 0.00 | 0.01 | 0.01 | 44 | 1016.4 |
| 20260502023855 | 48 | 264 | 0.0 | 1.0 | 0.00 | 0.01 | 0.01 | 44 | 1016.4 |
| 20260502023354 | 48 | 264 | 0.0 | 1.0 | 0.00 | 0.01 | 0.01 | 43 | 1016.4 |
| 20260502022854 | 48 | 264 | 0.0 | 1.0 | 0.00 | 0.01 | 0.01 | 43 | 1016.4 |
| 20260502022355 | 48 | 264 | 0.0 | 0.0 | 0.00 | 0.01 | 0.01 | 43 | 1016.3 |
| 20260502021855 | 48 | 264 | 0.0 | 1.0 | 0.00 | 0.01 | 0.01 | 43 | 1016.3 |
| 20260502021354 | 48 | 264 | 0.0 | 1.0 | 0.00 | 0.01 | 0.01 | 43 | 1016.3 |
| 20260502020854 | 48 | 264 | 0.0 | 0.0 | 0.00 | 0.01 | 0.01 | 42 | 1016.2 |
| 20260502020355 | 48 | 264 | 0.0 | 0.0 | 0.00 | 0.01 | 0.01 | 42 | 1016.2 |
| 20260502015855 | 48 | 264 | 0.0 | 0.0 | 0.00 | 0.01 | 0.01 | 42 | 1016.1 |
| 20260502015354 | 49 | 264 | 0.0 | 0.0 | 0.00 | 0.01 | 0.01 | 41 | 1016.1 |
| 20260502014854 | 49 | 264 | 0.0 | 0.0 | 0.00 | 0.01 | 0.01 | 41 | 1016.0 |
| 20260502014355 | 49 | 264 | 0.0 | 0.0 | 0.00 | 0.01 | 0.01 | 41 | 1016.0 |
| 20260502013855 | 50 | 264 | 0.0 | 0.0 | 0.00 | 0.01 | 0.01 | 41 | 1015.9 |
| 20260502013355 | 50 | 264 | 0.0 | 0.0 | 0.00 | 0.01 | 0.01 | 40 | 1015.9 |
| 20260502012854 | 51 | 265 | 0.0 | 0.0 | 0.00 | 0.01 | 0.01 | 39 | 1015.9 |
| 20260502012355 | 51 | 264 | 0.0 | 3.0 | 0.00 | 0.01 | 0.01 | 38 | 1015.9 |
| 20260502011855 | 51 | 265 | 0.0 | 3.0 | 0.00 | 0.01 | 0.01 | 38 | 1015.9 |
| 20260502011354 | 51 | 264 | 0.0 | 2.0 | 0.00 | 0.01 | 0.01 | 38 | 1015.8 |
| 20260502010855 | 51 | 264 | 0.0 | 4.0 | 0.00 | 0.01 | 0.01 | 37 | 1015.8 |
| 20260502010355 | 52 | 264 | 0.0 | 4.0 | 0.00 | 0.01 | 0.01 | 36 | 1015.7 |
| 20260502005854 | 52 | 264 | 0.0 | 3.0 | 0.00 | 0.01 | 0.01 | 38 | 1015.8 |
| 20260502005355 | 52 | 264 | 0.0 | 4.0 | 0.00 | 0.01 | 0.01 | 36 | 1015.8 |
| 20260502004855 | 52 | 265 | 0.0 | 4.0 | 0.00 | 0.01 | 0.01 | 36 | 1015.8 |
| 20260502004355 | 53 | 265 | 1.0 | 6.0 | 0.00 | 0.01 | 0.01 | 36 | 1015.7 |
| 20260502003859 | 53 | 255 | 0.0 | 4.0 | 0.00 | 0.01 | 0.01 | 35 | 1015.8 |
| 20260502003855 | 53 | 264 | 1.0 | 6.0 | 0.00 | 0.01 | 0.01 | 35 | 1015.7 |
| 20260502003459 | 53 | 337 | 0.0 | 3.0 | 0.00 | 0.01 | 0.01 | 34 | 1015.8 |
| 20260502002358 | 54 | 337 | 1.0 | 5.0 | 0.00 | 0.01 | 0.01 | 33 | 1015.7 |
| 20260502002354 | 54 | 337 | 0.0 | 3.0 | 0.00 | 0.01 | 0.01 | 33 | 1015.8 |
| 20260502001355 | 54 | 337 | 1.0 | 5.0 | 0.00 | 0.01 | 0.01 | 33 | 1015.7 |
| 20260502000854 | 54 | 247 | 1.0 | 4.0 | 0.00 | 0.02 | 0.01 | 34 | 1015.6 |
| 20260502000354 | 54 | 269 | 0.0 | 3.0 | 0.00 | 0.02 | 0.01 | 34 | 1015.6 |
| 20260501235854 | 53 | 267 | 0.0 | 2.0 | 0.00 | 0.02 | 0.01 | 36 | 1015.6 |
| 20260501235352 | 53 | 267 | 0.0 | 2.0 | 0.00 | 0.02 | 0.01 | 36 | 1015.7 |
| 20260501234851 | 52 | 267 | 0.0 | 1.0 | 0.00 | 0.02 | 0.01 | 37 | 1015.7 |
| 20260501234350 | 52 | 267 | 0.0 | 1.0 | 0.00 | 0.02 | 0.01 | 38 | 1015.7 |
| 20260501233850 | 51 | 267 | 0.0 | 2.0 | 0.00 | 0.02 | 0.01 | 38 | 1015.6 |
| 20260501233351 | 51 | 267 | 0.0 | 2.0 | 0.00 | 0.02 | 0.01 | 36 | 1015.6 |
| 20260501232851 | 51 | 267 | 0.0 | 2.0 | 0.00 | 0.02 | 0.01 | 38 | 1015.7 |
| 20260501232350 | 52 | 267 | 0.0 | 2.0 | 0.00 | 0.02 | 0.01 | 36 | 1015.7 |
| 20260501231851 | 52 | 267 | 0.0 | 3.0 | 0.00 | 0.02 | 0.01 | 37 | 1015.7 |
| 20260501231351 | 52 | 267 | 0.0 | 3.0 | 0.00 | 0.02 | 0.01 | 36 | 1015.6 |
| 20260501230850 | 52 | 267 | 0.0 | 3.0 | 0.00 | 0.02 | 0.01 | 36 | 1015.7 |
| 20260501230350 | 52 | 267 | 0.0 | 3.0 | 0.00 | 0.02 | 0.01 | 35 | 1015.7 |
| 20260501225850 | 52 | 267 | 0.0 | 3.0 | 0.00 | 0.02 | 0.01 | 37 | 1015.8 |
| 20260501225350 | 52 | 267 | 0.0 | 4.0 | 0.00 | 0.02 | 0.01 | 37 | 1015.7 |
| 20260501224850 | 52 | 267 | 0.0 | 4.0 | 0.00 | 0.02 | 0.01 | 35 | 1015.8 |
| 20260501224351 | 53 | 267 | 0.0 | 3.0 | 0.00 | 0.02 | 0.01 | 35 | 1015.8 |
| 20260501223850 | 53 | 267 | 1.0 | 8.0 | 0.00 | 0.02 | 0.01 | 35 | 1015.8 |
| 20260501223350 | 53 | 267 | 2.0 | 8.0 | 0.00 | 0.02 | 0.01 | 35 | 1015.8 |
| 20260501222850 | 54 | 257 | 2.0 | 7.0 | 0.00 | 0.02 | 0.01 | 34 | 1015.7 |
| 20260501222349 | 54 | 266 | 1.0 | 5.0 | 0.00 | 0.02 | 0.01 | 35 | 1015.8 |
| 20260501221848 | 54 | 282 | 1.0 | 4.0 | 0.00 | 0.02 | 0.01 | 37 | 1015.7 |
| 20260501221349 | 53 | 358 | 0.0 | 4.0 | 0.00 | 0.02 | 0.01 | 38 | 1015.6 |
| 20260501220848 | 53 | 267 | 0.0 | 3.0 | 0.00 | 0.02 | 0.01 | 36 | 1015.8 |
| 20260501220348 | 53 | 266 | 1.0 | 7.0 | 0.00 | 0.02 | 0.01 | 35 | 1015.8 |
| 20260501215851 | 53 | 267 | 2.0 | 7.0 | 0.00 | 0.02 | 0.01 | 36 | 1015.8 |
| 20260501215847 | 53 | 266 | 1.0 | 7.0 | 0.00 | 0.02 | 0.01 | 35 | 1015.8 |
| 20260501214846 | 53 | 266 | 1.0 | 7.0 | 0.00 | 0.02 | 0.01 | 35 | 1015.8 |
| 20260501214346 | 53 | 272 | 1.0 | 4.0 | 0.00 | 0.02 | 0.01 | 35 | 1015.8 |
| 20260501213846 | 53 | 348 | 1.0 | 4.0 | 0.00 | 0.02 | 0.01 | 35 | 1015.8 |